sensor_id;sensor_type;location;lat;lon;timestamp;pressure;altitude;pressure_sealevel;temperature;humidity
82743;BME280;72483;50.656;7.216;2024-03-23T00:54:46;100297.69;;;19.40;51.01
82743;BME280;72483;50.656;7.216;2024-03-23T00:57:13;100298.00;;;19.38;51.28
82743;BME280;72483;50.656;7.216;2024-03-23T00:59:38;100294.34;;;19.38;51.34
82743;BME280;72483;50.656;7.216;2024-03-23T01:02:05;100288.78;;;19.38;51.46
82743;BME280;72483;50.656;7.216;2024-03-23T01:04:30;100281.81;;;19.35;51.05
82743;BME280;72483;50.656;7.216;2024-03-23T01:06:57;100285.75;;;19.34;50.92
82743;BME280;72483;50.656;7.216;2024-03-23T01:09:22;100294.13;;;19.34;51.38
82743;BME280;72483;50.656;7.216;2024-03-23T01:11:50;100284.41;;;19.32;51.38
82743;BME280;72483;50.656;7.216;2024-03-23T01:14:16;100283.25;;;19.33;51.01
82743;BME280;72483;50.656;7.216;2024-03-23T01:16:42;100278.00;;;19.31;50.88
82743;BME280;72483;50.656;7.216;2024-03-23T01:19:08;100277.16;;;19.31;50.92
82743;BME280;72483;50.656;7.216;2024-03-23T01:21:34;100292.25;;;19.30;50.88
82743;BME280;72483;50.656;7.216;2024-03-23T01:24:00;100287.81;;;19.29;51.14
82743;BME280;72483;50.656;7.216;2024-03-23T01:26:27;100299.00;;;19.29;50.75
82743;BME280;72483;50.656;7.216;2024-03-23T01:28:54;100297.00;;;19.29;51.04
82743;BME280;72483;50.656;7.216;2024-03-23T01:31:20;100291.75;;;19.28;51.25
82743;BME280;72483;50.656;7.216;2024-03-23T01:33:46;100280.56;;;19.28;50.75
82743;BME280;72483;50.656;7.216;2024-03-23T01:36:12;100275.28;;;19.26;50.88
82743;BME280;72483;50.656;7.216;2024-03-23T01:38:38;100281.19;;;19.25;51.29
82743;BME280;72483;50.656;7.216;2024-03-23T01:41:04;100284.81;;;19.25;51.17
82743;BME280;72483;50.656;7.216;2024-03-23T01:43:30;100287.06;;;19.23;51.27
82743;BME280;72483;50.656;7.216;2024-03-23T01:45:58;100292.03;;;19.26;51.24
82743;BME280;72483;50.656;7.216;2024-03-23T01:48:24;100286.78;;;19.25;50.73
82743;BME280;72483;50.656;7.216;2024-03-23T01:50:51;100259.97;;;19.24;50.76
82743;BME280;72483;50.656;7.216;2024-03-23T01:53:16;100254.72;;;19.22;51.20
82743;BME280;72483;50.656;7.216;2024-03-23T01:55:44;100261.44;;;19.21;50.93
82743;BME280;72483;50.656;7.216;2024-03-23T01:58:10;100265.34;;;19.20;51.11
82743;BME280;72483;50.656;7.216;2024-03-23T02:00:38;100267.31;;;19.19;51.44
82743;BME280;72483;50.656;7.216;2024-03-23T02:03:23;100257.28;;;19.18;50.74
82743;BME280;72483;50.656;7.216;2024-03-23T02:05:50;100246.13;;;19.18;51.35
82743;BME280;72483;50.656;7.216;2024-03-23T02:08:17;100258.13;;;19.19;50.81
82743;BME280;72483;50.656;7.216;2024-03-23T02:10:44;100260.06;;;19.18;50.85
82743;BME280;72483;50.656;7.216;2024-03-23T02:13:09;100242.50;;;19.18;51.16
82743;BME280;72483;50.656;7.216;2024-03-23T02:15:36;100238.03;;;19.17;50.93
82743;BME280;72483;50.656;7.216;2024-03-23T02:18:02;100229.97;;;19.15;50.96
82743;BME280;72483;50.656;7.216;2024-03-23T02:20:30;100242.78;;;19.16;51.35
82743;BME280;72483;50.656;7.216;2024-03-23T02:22:57;100249.53;;;19.15;51.19
82743;BME280;72483;50.656;7.216;2024-03-23T02:25:23;100245.06;;;19.14;50.91
82743;BME280;72483;50.656;7.216;2024-03-23T02:27:49;100248.97;;;19.13;50.78
82743;BME280;72483;50.656;7.216;2024-03-23T02:30:16;100244.22;;;19.14;51.40
82743;BME280;72483;50.656;7.216;2024-03-23T02:32:41;100260.16;;;19.13;51.19
82743;BME280;72483;50.656;7.216;2024-03-23T02:35:07;100248.97;;;19.13;51.25
82743;BME280;72483;50.656;7.216;2024-03-23T02:37:33;100255.72;;;19.12;51.00
82743;BME280;72483;50.656;7.216;2024-03-23T02:40:01;100255.72;;;19.12;50.85
82743;BME280;72483;50.656;7.216;2024-03-23T02:42:26;100261.31;;;19.12;51.21
82743;BME280;72483;50.656;7.216;2024-03-23T02:44:53;100265.72;;;19.13;51.37
82743;BME280;72483;50.656;7.216;2024-03-23T02:47:19;100265.22;;;19.11;51.44
82743;BME280;72483;50.656;7.216;2024-03-23T02:49:45;100252.38;;;19.10;51.27
82743;BME280;72483;50.656;7.216;2024-03-23T02:52:11;100247.13;;;19.09;51.27
82743;BME280;72483;50.656;7.216;2024-03-23T02:54:37;100258.28;;;19.09;51.01
82743;BME280;72483;50.656;7.216;2024-03-23T02:57:04;100259.41;;;19.08;50.74
82743;BME280;72483;50.656;7.216;2024-03-23T02:59:31;100263.88;;;19.09;50.97
82743;BME280;72483;50.656;7.216;2024-03-23T03:01:56;100261.38;;;19.07;51.05
82743;BME280;72483;50.656;7.216;2024-03-23T03:04:25;100254.44;;;19.05;50.63
82743;BME280;72483;50.656;7.216;2024-03-23T03:06:50;100272.88;;;19.06;51.24
82743;BME280;72483;50.656;7.216;2024-03-23T03:09:17;100267.56;;;19.04;51.35
82743;BME280;72483;50.656;7.216;2024-03-23T03:11:42;100263.16;;;19.03;50.83
82743;BME280;72483;50.656;7.216;2024-03-23T03:14:10;100260.66;;;19.02;51.05
82743;BME280;72483;50.656;7.216;2024-03-23T03:16:36;100265.41;;;19.01;50.97
82743;BME280;72483;50.656;7.216;2024-03-23T03:19:02;100258.19;;;19.00;50.83
82743;BME280;72483;50.656;7.216;2024-03-23T03:21:27;100257.34;;;19.00;50.69
82743;BME280;72483;50.656;7.216;2024-03-23T03:23:54;100266.56;;;19.00;50.77
82743;BME280;72483;50.656;7.216;2024-03-23T03:26:21;100291.97;;;18.99;51.11
82743;BME280;72483;50.656;7.216;2024-03-23T03:28:48;100301.47;;;18.98;51.01
82743;BME280;72483;50.656;7.216;2024-03-23T03:31:15;100300.63;;;18.97;50.83
82743;BME280;72483;50.656;7.216;2024-03-23T03:33:42;100299.00;;;18.96;50.92
82743;BME280;72483;50.656;7.216;2024-03-23T03:36:08;100308.47;;;18.95;50.64
82743;BME280;72483;50.656;7.216;2024-03-23T03:38:34;100320.78;;;18.94;50.82
82743;BME280;72483;50.656;7.216;2024-03-23T03:41:00;100315.50;;;18.93;50.61
82743;BME280;72483;50.656;7.216;2024-03-23T03:43:27;100316.34;;;18.93;50.79
82743;BME280;72483;50.656;7.216;2024-03-23T03:45:52;100309.09;;;18.92;50.73
82743;BME280;72483;50.656;7.216;2024-03-23T03:48:20;100310.22;;;18.91;51.08
82743;BME280;72483;50.656;7.216;2024-03-23T03:50:46;100301.03;;;18.91;51.07
82743;BME280;72483;50.656;7.216;2024-03-23T03:53:12;100316.63;;;18.92;50.93
82743;BME280;72483;50.656;7.216;2024-03-23T03:55:38;100319.75;;;18.90;50.49
82743;BME280;72483;50.656;7.216;2024-03-23T03:58:04;100323.66;;;18.89;50.62
82743;BME280;72483;50.656;7.216;2024-03-23T04:00:30;100310.81;;;18.88;50.38
82743;BME280;72483;50.656;7.216;2024-03-23T04:02:56;100311.13;;;18.87;50.39
82743;BME280;72483;50.656;7.216;2024-03-23T04:05:23;100307.53;;;18.86;50.85
82743;BME280;72483;50.656;7.216;2024-03-23T04:07:50;100314.22;;;18.85;50.76
82743;BME280;72483;50.656;7.216;2024-03-23T04:10:15;100320.97;;;18.84;50.28
82743;BME280;72483;50.656;7.216;2024-03-23T04:12:43;100324.03;;;18.83;50.25
82743;BME280;72483;50.656;7.216;2024-03-23T04:15:08;100327.66;;;18.83;50.42
82743;BME280;72483;50.656;7.216;2024-03-23T04:17:35;100337.47;;;18.81;50.52
82743;BME280;72483;50.656;7.216;2024-03-23T04:20:01;100337.75;;;18.79;50.21
82743;BME280;72483;50.656;7.216;2024-03-23T04:22:34;100348.91;;;18.79;50.61
82743;BME280;72483;50.656;7.216;2024-03-23T04:25:00;100347.28;;;18.78;50.35
82743;BME280;72483;50.656;7.216;2024-03-23T04:27:31;100347.28;;;18.78;50.03
82743;BME280;72483;50.656;7.216;2024-03-23T04:29:57;100355.09;;;18.76;50.28
82743;BME280;72483;50.656;7.216;2024-03-23T04:32:23;100349.53;;;18.76;50.24
82743;BME280;72483;50.656;7.216;2024-03-23T04:34:49;100357.91;;;18.76;50.09
82743;BME280;72483;50.656;7.216;2024-03-23T04:37:15;100366.25;;;18.76;50.26
82743;BME280;72483;50.656;7.216;2024-03-23T04:39:44;100368.53;;;18.74;50.28
82743;BME280;72483;50.656;7.216;2024-03-23T04:42:11;100363.78;;;18.75;50.30
82743;BME280;72483;50.656;7.216;2024-03-23T04:44:38;100369.66;;;18.73;50.15
82743;BME280;72483;50.656;7.216;2024-03-23T04:47:04;100369.66;;;18.73;50.16
82743;BME280;72483;50.656;7.216;2024-03-23T04:49:31;100369.66;;;18.73;50.22
82743;BME280;72483;50.656;7.216;2024-03-23T04:51:58;100383.94;;;18.72;50.41
82743;BME280;72483;50.656;7.216;2024-03-23T04:54:24;100381.44;;;18.70;50.29
82743;BME280;72483;50.656;7.216;2024-03-23T04:56:52;100384.22;;;18.70;50.18
82743;BME280;72483;50.656;7.216;2024-03-23T04:59:18;100384.22;;;18.70;50.31
82743;BME280;72483;50.656;7.216;2024-03-23T05:01:44;100371.38;;;18.69;49.82
82743;BME280;72483;50.656;7.216;2024-03-23T05:04:09;100385.34;;;18.69;49.67
82743;BME280;72483;50.656;7.216;2024-03-23T05:06:36;100377.78;;;18.70;50.10
82743;BME280;72483;50.656;7.216;2024-03-23T05:09:01;100374.16;;;18.69;49.96
82743;BME280;72483;50.656;7.216;2024-03-23T05:11:31;100381.75;;;18.69;49.70
82743;BME280;72483;50.656;7.216;2024-03-23T05:13:58;100378.13;;;18.68;50.12
82743;BME280;72483;50.656;7.216;2024-03-23T05:16:24;100380.91;;;18.68;49.90
82743;BME280;72483;50.656;7.216;2024-03-23T05:18:51;100382.03;;;18.67;50.19
82743;BME280;72483;50.656;7.216;2024-03-23T05:21:18;100376.44;;;18.67;50.15
82743;BME280;72483;50.656;7.216;2024-03-23T05:23:43;100378.41;;;18.67;49.75
82743;BME280;72483;50.656;7.216;2024-03-23T05:26:10;100373.41;;;18.63;49.63
82743;BME280;72483;50.656;7.216;2024-03-23T05:28:36;100380.66;;;18.64;50.06
82743;BME280;72483;50.656;7.216;2024-03-23T05:31:04;100379.84;;;18.64;50.18
82743;BME280;72483;50.656;7.216;2024-03-23T05:33:29;100382.63;;;18.64;49.56
82743;BME280;72483;50.656;7.216;2024-03-23T05:35:57;100384.28;;;18.65;50.04
82743;BME280;72483;50.656;7.216;2024-03-23T05:38:23;100380.16;;;18.62;49.91
82743;BME280;72483;50.656;7.216;2024-03-23T05:40:53;100388.53;;;18.62;49.99
82743;BME280;72483;50.656;7.216;2024-03-23T05:43:19;100385.41;;;18.64;49.75
82743;BME280;72483;50.656;7.216;2024-03-23T05:45:45;100391.00;;;18.64;49.44
82743;BME280;72483;50.656;7.216;2024-03-23T05:48:12;100387.38;;;18.63;49.96
82743;BME280;72483;50.656;7.216;2024-03-23T05:50:38;100384.91;;;18.62;49.51
82743;BME280;72483;50.656;7.216;2024-03-23T05:53:04;100396.06;;;18.62;49.96
82743;BME280;72483;50.656;7.216;2024-03-23T05:55:30;100396.88;;;18.62;49.87
82743;BME280;72483;50.656;7.216;2024-03-23T05:57:57;100393.25;;;18.62;49.62
82743;BME280;72483;50.656;7.216;2024-03-23T06:00:25;100404.09;;;18.63;49.65
82743;BME280;72483;50.656;7.216;2024-03-23T06:02:51;100395.75;;;18.63;49.50
82743;BME280;72483;50.656;7.216;2024-03-23T06:05:19;100398.53;;;18.63;49.68
82743;BME280;72483;50.656;7.216;2024-03-23T06:07:45;100397.41;;;18.64;49.48
82743;BME280;72483;50.656;7.216;2024-03-23T06:10:11;100411.34;;;18.64;49.47
82743;BME280;72483;50.656;7.216;2024-03-23T06:12:37;100406.91;;;18.63;49.98
82743;BME280;72483;50.656;7.216;2024-03-23T06:15:04;100406.91;;;18.63;49.91
82743;BME280;72483;50.656;7.216;2024-03-23T06:17:30;100409.69;;;18.63;49.84
82743;BME280;72483;50.656;7.216;2024-03-23T06:19:56;100409.69;;;18.63;49.47
82743;BME280;72483;50.656;7.216;2024-03-23T06:22:23;100402.16;;;18.64;50.02
82743;BME280;72483;50.656;7.216;2024-03-23T06:24:50;100405.78;;;18.64;50.02
82743;BME280;72483;50.656;7.216;2024-03-23T06:27:15;100410.25;;;18.66;49.70
82743;BME280;72483;50.656;7.216;2024-03-23T06:29:42;100406.28;;;18.67;49.70
82743;BME280;72483;50.656;7.216;2024-03-23T06:32:07;100409.91;;;18.67;49.78
82743;BME280;72483;50.656;7.216;2024-03-23T06:34:34;100408.81;;;18.68;49.35
82743;BME280;72483;50.656;7.216;2024-03-23T06:37:00;100407.66;;;18.69;49.49
82743;BME280;72483;50.656;7.216;2024-03-23T06:39:29;100415.22;;;18.69;49.96
82743;BME280;72483;50.656;7.216;2024-03-23T06:41:55;100419.38;;;18.71;49.59
82743;BME280;72483;50.656;7.216;2024-03-23T06:44:22;100417.41;;;18.72;49.89
82743;BME280;72483;50.656;7.216;2024-03-23T06:46:47;100419.88;;;18.73;49.41
82743;BME280;72483;50.656;7.216;2024-03-23T06:49:14;100429.91;;;18.74;49.75
82743;BME280;72483;50.656;7.216;2024-03-23T06:51:40;100425.19;;;18.75;49.86
82743;BME280;72483;50.656;7.216;2024-03-23T06:54:07;100437.19;;;18.75;49.37
82743;BME280;72483;50.656;7.216;2024-03-23T06:56:34;100435.19;;;18.76;49.85
82743;BME280;72483;50.656;7.216;2024-03-23T06:59:01;100431.28;;;18.77;49.50
82743;BME280;72483;50.656;7.216;2024-03-23T07:01:26;100432.13;;;18.77;49.75
82743;BME280;72483;50.656;7.216;2024-03-23T07:03:53;100427.38;;;18.78;49.34
82743;BME280;72483;50.656;7.216;2024-03-23T07:06:19;100431.78;;;18.79;49.29
82743;BME280;72483;50.656;7.216;2024-03-23T07:08:45;100425.09;;;18.80;49.26
82743;BME280;72483;50.656;7.216;2024-03-23T07:11:11;100419.50;;;18.80;49.40
82743;BME280;72483;50.656;7.216;2024-03-23T07:13:39;100422.03;;;18.81;49.34
82743;BME280;72483;50.656;7.216;2024-03-23T07:16:04;100428.41;;;18.82;49.22
82743;BME280;72483;50.656;7.216;2024-03-23T07:18:31;100430.06;;;18.83;49.26
82743;BME280;72483;50.656;7.216;2024-03-23T07:20:59;100434.81;;;18.82;49.52
82743;BME280;72483;50.656;7.216;2024-03-23T07:23:25;100440.13;;;18.84;49.34
82743;BME280;72483;50.656;7.216;2024-03-23T07:25:57;100438.16;;;18.84;49.40
82743;BME280;72483;50.656;7.216;2024-03-23T07:28:23;100438.16;;;18.84;49.54
82743;BME280;72483;50.656;7.216;2024-03-23T07:31:01;100425.84;;;18.85;49.63
82743;BME280;72483;50.656;7.216;2024-03-23T07:33:27;100425.84;;;18.85;49.51
82743;BME280;72483;50.656;7.216;2024-03-23T07:35:53;100424.72;;;18.86;49.52
82743;BME280;72483;50.656;7.216;2024-03-23T07:38:19;100431.97;;;18.87;49.15
82743;BME280;72483;50.656;7.216;2024-03-23T07:40:45;100425.25;;;18.88;49.70
82743;BME280;72483;50.656;7.216;2024-03-23T07:43:11;100422.78;;;18.87;49.62
82743;BME280;72483;50.656;7.216;2024-03-23T07:45:38;100433.63;;;18.88;49.67
82743;BME280;72483;50.656;7.216;2024-03-23T07:48:05;100434.44;;;18.89;49.62
82743;BME280;72483;50.656;7.216;2024-03-23T07:50:32;100443.66;;;18.89;49.46
82743;BME280;72483;50.656;7.216;2024-03-23T07:52:57;100430.81;;;18.88;49.17
82743;BME280;72483;50.656;7.216;2024-03-23T07:55:24;100443.66;;;18.89;49.67
82743;BME280;72483;50.656;7.216;2024-03-23T07:57:51;100443.66;;;18.89;49.30
82743;BME280;72483;50.656;7.216;2024-03-23T08:00:19;100443.66;;;18.89;49.54
82743;BME280;72483;50.656;7.216;2024-03-23T08:02:44;100450.38;;;18.88;49.32
82743;BME280;72483;50.656;7.216;2024-03-23T08:05:12;100443.97;;;18.88;49.47
82743;BME280;72483;50.656;7.216;2024-03-23T08:07:38;100452.03;;;18.89;49.17
82743;BME280;72483;50.656;7.216;2024-03-23T08:10:05;100459.56;;;18.89;49.40
82743;BME280;72483;50.656;7.216;2024-03-23T08:12:31;100457.09;;;18.87;49.32
82743;BME280;72483;50.656;7.216;2024-03-23T08:14:57;100463.50;;;18.88;49.40
82743;BME280;72483;50.656;7.216;2024-03-23T08:17:23;100455.44;;;18.86;49.36
82743;BME280;72483;50.656;7.216;2024-03-23T08:19:49;100464.63;;;18.87;49.32
82743;BME280;72483;50.656;7.216;2024-03-23T08:22:16;100462.97;;;18.86;49.69
82743;BME280;72483;50.656;7.216;2024-03-23T08:24:43;100511.25;;;18.86;49.41
82743;BME280;72483;50.656;7.216;2024-03-23T08:27:08;100519.63;;;18.86;49.63
82743;BME280;72483;50.656;7.216;2024-03-23T08:29:35;100521.56;;;18.86;49.35
82743;BME280;72483;50.656;7.216;2024-03-23T08:32:00;100497.56;;;18.85;49.25
82743;BME280;72483;50.656;7.216;2024-03-23T08:34:27;100492.31;;;18.83;49.21
82743;BME280;72483;50.656;7.216;2024-03-23T08:36:52;100477.50;;;18.83;49.04
82743;BME280;72483;50.656;7.216;2024-03-23T08:39:20;100475.31;;;18.80;49.18
82743;BME280;72483;50.656;7.216;2024-03-23T08:41:46;100480.91;;;18.80;49.03
82743;BME280;72483;50.656;7.216;2024-03-23T08:44:12;100474.50;;;18.79;48.93
82743;BME280;72483;50.656;7.216;2024-03-23T08:46:38;100482.84;;;18.79;49.28
82743;BME280;72483;50.656;7.216;2024-03-23T08:49:04;100484.81;;;18.79;49.23
82743;BME280;72483;50.656;7.216;2024-03-23T08:51:30;100483.69;;;18.80;49.11
82743;BME280;72483;50.656;7.216;2024-03-23T08:53:56;100485.97;;;18.78;48.95
82743;BME280;72483;50.656;7.216;2024-03-23T08:56:23;100485.97;;;18.78;49.10
82743;BME280;72483;50.656;7.216;2024-03-23T08:58:50;100488.75;;;18.78;49.47
82743;BME280;72483;50.656;7.216;2024-03-23T09:01:16;100482.94;;;18.74;49.14
82743;BME280;72483;50.656;7.216;2024-03-23T09:03:42;100475.91;;;18.77;49.27
82743;BME280;72483;50.656;7.216;2024-03-23T09:06:08;100474.25;;;18.76;49.13
82743;BME280;72483;50.656;7.216;2024-03-23T09:08:35;100467.88;;;18.75;49.28
82743;BME280;72483;50.656;7.216;2024-03-23T09:11:03;100462.56;;;18.74;49.16
82743;BME280;72483;50.656;7.216;2024-03-23T09:13:33;100474.56;;;18.74;49.29
82743;BME280;72483;50.656;7.216;2024-03-23T09:15:59;100466.19;;;18.74;48.94
82743;BME280;72483;50.656;7.216;2024-03-23T09:18:25;100457.00;;;18.74;48.89
82743;BME280;72483;50.656;7.216;2024-03-23T09:20:51;100459.78;;;18.74;48.79
82743;BME280;72483;50.656;7.216;2024-03-23T09:23:18;100451.69;;;18.72;49.27
82743;BME280;72483;50.656;7.216;2024-03-23T09:25:44;100454.19;;;18.74;48.82
82743;BME280;72483;50.656;7.216;2024-03-23T09:28:10;100445.00;;;18.73;48.99
82743;BME280;72483;50.656;7.216;2024-03-23T09:30:37;100436.09;;;18.71;49.43
82743;BME280;72483;50.656;7.216;2024-03-23T09:33:07;100433.84;;;18.73;48.95
82743;BME280;72483;50.656;7.216;2024-03-23T09:35:36;100440.53;;;18.72;49.42
82743;BME280;72483;50.656;7.216;2024-03-23T09:38:03;100436.09;;;18.71;49.10
82743;BME280;72483;50.656;7.216;2024-03-23T09:40:29;100448.09;;;18.72;49.22
82743;BME280;72483;50.656;7.216;2024-03-23T09:42:55;100469.59;;;18.71;49.19
82743;BME280;72483;50.656;7.216;2024-03-23T09:45:23;100460.38;;;18.71;49.45
82743;BME280;72483;50.656;7.216;2024-03-23T09:47:53;100465.13;;;18.70;49.44
82743;BME280;72483;50.656;7.216;2024-03-23T09:50:19;100450.34;;;18.70;49.00
82743;BME280;72483;50.656;7.216;2024-03-23T09:52:46;100445.91;;;18.69;49.35
82743;BME280;72483;50.656;7.216;2024-03-23T09:55:12;100447.03;;;18.68;48.94
82743;BME280;72483;50.656;7.216;2024-03-23T09:57:39;100447.88;;;18.68;49.02
82743;BME280;72483;50.656;7.216;2024-03-23T10:00:05;100438.66;;;18.68;49.33
82743;BME280;72483;50.656;7.216;2024-03-23T10:02:34;100434.75;;;18.69;49.08
82743;BME280;72483;50.656;7.216;2024-03-23T10:05:01;100428.34;;;18.68;49.19
82743;BME280;72483;50.656;7.216;2024-03-23T10:07:27;100428.34;;;18.68;49.40
82743;BME280;72483;50.656;7.216;2024-03-23T10:09:53;100426.66;;;18.67;49.24
82743;BME280;72483;50.656;7.216;2024-03-23T10:12:21;100433.91;;;18.68;49.25
82743;BME280;72483;50.656;7.216;2024-03-23T10:14:46;100446.19;;;18.67;49.41
82743;BME280;72483;50.656;7.216;2024-03-23T10:17:14;100461.81;;;18.68;49.14
82743;BME280;72483;50.656;7.216;2024-03-23T10:19:40;100452.59;;;18.68;49.24
82743;BME280;72483;50.656;7.216;2024-03-23T10:22:13;100458.19;;;18.68;49.29
82743;BME280;72483;50.656;7.216;2024-03-23T10:24:38;100448.97;;;18.67;48.96
82743;BME280;72483;50.656;7.216;2024-03-23T10:27:05;100444.53;;;18.66;48.98
82743;BME280;72483;50.656;7.216;2024-03-23T10:29:30;100442.88;;;18.65;49.40
82743;BME280;72483;50.656;7.216;2024-03-23T10:32:07;100442.56;;;18.67;49.21
82743;BME280;72483;50.656;7.216;2024-03-23T10:34:33;100439.25;;;18.64;49.05
82743;BME280;72483;50.656;7.216;2024-03-23T10:37:01;100457.66;;;18.66;49.03
82743;BME280;72483;50.656;7.216;2024-03-23T10:39:30;100484.19;;;18.63;49.04
82743;BME280;72483;50.656;7.216;2024-03-23T10:41:58;100521.00;;;18.65;48.82
82743;BME280;72483;50.656;7.216;2024-03-23T10:44:25;100541.38;;;18.66;48.82
82743;BME280;72483;50.656;7.216;2024-03-23T10:46:58;100547.22;;;18.64;48.80
82743;BME280;72483;50.656;7.216;2024-03-23T10:49:28;100556.72;;;18.63;49.11
82743;BME280;72483;50.656;7.216;2024-03-23T10:51:57;100567.88;;;18.63;49.02
82743;BME280;72483;50.656;7.216;2024-03-23T10:54:24;100569.84;;;18.62;48.87
82743;BME280;72483;50.656;7.216;2024-03-23T10:56:56;100565.38;;;18.61;48.69
82743;BME280;72483;50.656;7.216;2024-03-23T10:59:23;100564.56;;;18.61;48.88
82743;BME280;72483;50.656;7.216;2024-03-23T11:01:54;100558.13;;;18.60;48.71
82743;BME280;72483;50.656;7.216;2024-03-23T11:04:29;100543.34;;;18.60;48.99
82743;BME280;72483;50.656;7.216;2024-03-23T11:06:56;100481.16;;;18.59;48.86
82743;BME280;72483;50.656;7.216;2024-03-23T11:09:43;100482.56;;;18.57;48.73
82743;BME280;72483;50.656;7.216;2024-03-23T11:12:28;100499.03;;;18.58;49.21
82743;BME280;72483;50.656;7.216;2024-03-23T11:15:01;100505.44;;;18.59;48.76
82743;BME280;72483;50.656;7.216;2024-03-23T11:17:28;100499.88;;;18.59;49.18
82743;BME280;72483;50.656;7.216;2024-03-23T11:19:55;100488.16;;;18.57;48.98
82743;BME280;72483;50.656;7.216;2024-03-23T11:22:38;100488.16;;;18.57;49.07
82743;BME280;72483;50.656;7.216;2024-03-23T11:25:12;100486.19;;;18.57;48.72
82743;BME280;72483;50.656;7.216;2024-03-23T11:27:40;100492.63;;;18.58;49.15
82743;BME280;72483;50.656;7.216;2024-03-23T11:30:11;100483.41;;;18.57;48.79
82743;BME280;72483;50.656;7.216;2024-03-23T11:32:38;100496.53;;;18.57;48.98
82743;BME280;72483;50.656;7.216;2024-03-23T11:35:05;100496.53;;;18.57;48.92
82743;BME280;72483;50.656;7.216;2024-03-23T11:37:34;100495.69;;;18.56;48.62
82743;BME280;72483;50.656;7.216;2024-03-23T11:39:59;100499.31;;;18.57;48.63
82743;BME280;72483;50.656;7.216;2024-03-23T11:42:26;100505.72;;;18.57;48.79
82743;BME280;72483;50.656;7.216;2024-03-23T11:44:53;100490.94;;;18.57;48.84
82743;BME280;72483;50.656;7.216;2024-03-23T11:47:20;100481.75;;;18.56;48.67
82743;BME280;72483;50.656;7.216;2024-03-23T11:49:48;100479.78;;;18.57;49.24
82743;BME280;72483;50.656;7.216;2024-03-23T11:52:15;100488.47;;;18.55;48.69
82743;BME280;72483;50.656;7.216;2024-03-23T11:54:41;100475.34;;;18.56;49.15
82743;BME280;72483;50.656;7.216;2024-03-23T11:57:08;100472.56;;;18.56;49.27
82743;BME280;72483;50.656;7.216;2024-03-23T11:59:35;100478.94;;;18.56;49.38
82743;BME280;72483;50.656;7.216;2024-03-23T12:02:07;100490.09;;;18.56;48.94
82743;BME280;72483;50.656;7.216;2024-03-23T12:04:33;100480.75;;;18.71;48.85
82743;BME280;72483;50.656;7.216;2024-03-23T12:07:12;100474.50;;;18.79;48.73
82743;BME280;72483;50.656;7.216;2024-03-23T12:09:37;100472.25;;;18.81;48.80
82743;BME280;72483;50.656;7.216;2024-03-23T12:12:11;100472.44;;;18.85;49.09
82743;BME280;72483;50.656;7.216;2024-03-23T12:14:40;100465.22;;;18.84;50.12
82743;BME280;72483;50.656;7.216;2024-03-23T12:17:11;100459.28;;;18.90;50.23
82743;BME280;72483;50.656;7.216;2024-03-23T12:19:37;100457.84;;;18.93;50.27
82743;BME280;72483;50.656;7.216;2024-03-23T12:22:04;100450.00;;;18.95;50.38
82743;BME280;72483;50.656;7.216;2024-03-23T12:24:30;100443.22;;;19.01;49.89
82743;BME280;72483;50.656;7.216;2024-03-23T12:27:00;100446.78;;;19.06;49.86
82743;BME280;72483;50.656;7.216;2024-03-23T12:29:27;100437.19;;;19.12;49.66
82743;BME280;72483;50.656;7.216;2024-03-23T12:31:53;100424.81;;;19.18;49.54
82743;BME280;72483;50.656;7.216;2024-03-23T12:34:20;100428.13;;;19.21;48.99
82743;BME280;72483;50.656;7.216;2024-03-23T12:36:46;100423.66;;;19.19;49.45
82743;BME280;72483;50.656;7.216;2024-03-23T12:39:12;100423.66;;;19.19;49.57
82743;BME280;72483;50.656;7.216;2024-03-23T12:41:38;100414.16;;;19.21;49.43
82743;BME280;72483;50.656;7.216;2024-03-23T12:44:04;100401.31;;;19.19;49.41
82743;BME280;72483;50.656;7.216;2024-03-23T12:46:31;100402.94;;;19.26;49.36
82743;BME280;72483;50.656;7.216;2024-03-23T12:48:56;100393.16;;;19.23;49.42
82743;BME280;72483;50.656;7.216;2024-03-23T12:51:24;100395.13;;;19.23;49.37
82743;BME280;72483;50.656;7.216;2024-03-23T12:53:50;100387.59;;;19.23;49.23
82743;BME280;72483;50.656;7.216;2024-03-23T12:56:16;100382.84;;;19.24;49.02
82743;BME280;72483;50.656;7.216;2024-03-23T12:58:42;100388.97;;;19.26;49.49
82743;BME280;72483;50.656;7.216;2024-03-23T13:01:08;100392.56;;;19.26;49.36
82743;BME280;72483;50.656;7.216;2024-03-23T13:03:34;100391.75;;;19.26;49.26
82743;BME280;72483;50.656;7.216;2024-03-23T13:06:00;100386.59;;;19.33;48.84
82743;BME280;72483;50.656;7.216;2024-03-23T13:08:27;100398.81;;;19.37;49.04
82743;BME280;72483;50.656;7.216;2024-03-23T13:10:54;100416.91;;;19.44;49.04
82743;BME280;72483;50.656;7.216;2024-03-23T13:13:20;100409.31;;;19.45;48.42
82743;BME280;72483;50.656;7.216;2024-03-23T13:15:49;100394.59;;;19.39;48.55
82743;BME280;72483;50.656;7.216;2024-03-23T13:18:15;100411.13;;;19.36;49.16
82743;BME280;72483;50.656;7.216;2024-03-23T13:20:41;100414.75;;;19.36;48.97
82743;BME280;72483;50.656;7.216;2024-03-23T13:23:07;100409.16;;;19.36;48.98
82743;BME280;72483;50.656;7.216;2024-03-23T13:25:35;100404.19;;;19.33;49.33
82743;BME280;72483;50.656;7.216;2024-03-23T13:28:01;100392.78;;;19.30;49.64
82743;BME280;72483;50.656;7.216;2024-03-23T13:30:27;100400.03;;;19.31;49.78
82743;BME280;72483;50.656;7.216;2024-03-23T13:32:53;100398.91;;;19.32;49.56
82743;BME280;72483;50.656;7.216;2024-03-23T13:35:19;100393.34;;;19.32;49.57
82743;BME280;72483;50.656;7.216;2024-03-23T13:37:45;100382.34;;;19.35;49.93
82743;BME280;72483;50.656;7.216;2024-03-23T13:40:12;100391.53;;;19.41;49.67
82743;BME280;72483;50.656;7.216;2024-03-23T13:42:39;100382.31;;;19.40;49.44